OAL195 RJBD-RJAF
Flight info
| Callsign | OAL195 |
|---|---|
| Flight time | 0h 59m |
| Altitude | 27000 |
| Route | KEC V52 AYANO Y12 SHIMA V52 CBE Y121 RIPSI |
| Aircraft | TBM8/L-SDFGRWY/S |
Departure
| Time | 2026-04-28 22:00 |
|---|---|
| Airport | Nanki Shirahama Airport (RJBD) |
Arrival
| Time | 2026-04-28 23:00 |
|---|---|
| Airport | Shinshu-Matsumoto Airport (RJAF) |
| Time | Latitude | Longitude | Altitude | Speed | Heading |
|---|---|---|---|---|---|
| 2026-04-28 21:53 | 33.66520 | 135.36029 | 298 ft | 0 kts | 51° |
| 2026-04-28 21:59 | 33.66523 | 135.36032 | 298 ft | 3 kts | 23° |
| 2026-04-28 21:59 | 33.66560 | 135.36020 | 298 ft | 11 kts | 49° |
| 2026-04-28 21:59 | 33.66593 | 135.36107 | 300 ft | 12 kts | 128° |
| 2026-04-28 22:00 | 33.66546 | 135.36155 | 300 ft | 29 kts | 140° |
| 2026-04-28 22:00 | 33.66201 | 135.36487 | 291 ft | 96 kts | 140° |
| 2026-04-28 22:00 | 33.65588 | 135.37026 | 592 ft | 114 kts | 139° |
| 2026-04-28 22:00 | 33.65026 | 135.37757 | 995 ft | 129 kts | 128° |
| 2026-04-28 22:01 | 33.64305 | 135.38592 | 1247 ft | 159 kts | 135° |
| 2026-04-28 22:01 | 33.63465 | 135.39546 | 1526 ft | 176 kts | 133° |
| 2026-04-28 22:01 | 33.62585 | 135.40592 | 2011 ft | 179 kts | 133° |
| 2026-04-28 22:01 | 33.61800 | 135.41745 | 2512 ft | 177 kts | 117° |
| 2026-04-28 22:02 | 33.61228 | 135.43031 | 3051 ft | 173 kts | 113° |
| 2026-04-28 22:02 | 33.60664 | 135.44319 | 3583 ft | 176 kts | 116° |
| 2026-04-28 22:02 | 33.60087 | 135.45602 | 4131 ft | 174 kts | 119° |
| 2026-04-28 22:02 | 33.59510 | 135.46883 | 4708 ft | 174 kts | 121° |
| 2026-04-28 22:03 | 33.58936 | 135.48160 | 5260 ft | 173 kts | 121° |
| 2026-04-28 22:03 | 33.58370 | 135.49421 | 5815 ft | 171 kts | 122° |
| 2026-04-28 22:03 | 33.57825 | 135.50649 | 6394 ft | 168 kts | 124° |
| 2026-04-28 22:03 | 33.57269 | 135.51868 | 6889 ft | 168 kts | 125° |
| 2026-04-28 22:04 | 33.56704 | 135.53125 | 7362 ft | 175 kts | 125° |
| 2026-04-28 22:04 | 33.56113 | 135.54437 | 7850 ft | 182 kts | 125° |
| 2026-04-28 22:04 | 33.55491 | 135.55803 | 8348 ft | 190 kts | 126° |
| 2026-04-28 22:04 | 33.54857 | 135.57206 | 8849 ft | 197 kts | 126° |
| 2026-04-28 22:05 | 33.54203 | 135.58652 | 9366 ft | 198 kts | 126° |
| 2026-04-28 22:05 | 33.53540 | 135.60123 | 9872 ft | 202 kts | 126° |
| 2026-04-28 22:05 | 33.52875 | 135.61600 | 10357 ft | 204 kts | 127° |
| 2026-04-28 22:05 | 33.52190 | 135.63117 | 10821 ft | 207 kts | 127° |
| 2026-04-28 22:06 | 33.51493 | 135.64651 | 11286 ft | 210 kts | 127° |
| 2026-04-28 22:06 | 33.50794 | 135.66196 | 11772 ft | 211 kts | 127° |
| 2026-04-28 22:06 | 33.50096 | 135.67749 | 12269 ft | 212 kts | 128° |
| 2026-04-28 22:06 | 33.49393 | 135.69301 | 12767 ft | 212 kts | 129° |
| 2026-04-28 22:07 | 33.48686 | 135.70860 | 13277 ft | 212 kts | 130° |
| 2026-04-28 22:07 | 33.47979 | 135.72419 | 13791 ft | 213 kts | 130° |
| 2026-04-28 22:07 | 33.47274 | 135.73980 | 14249 ft | 213 kts | 130° |
| 2026-04-28 22:07 | 33.46579 | 135.75516 | 14688 ft | 213 kts | 131° |
| 2026-04-28 22:08 | 33.46023 | 135.77210 | 15096 ft | 229 kts | 105° |
| 2026-04-28 22:08 | 33.46064 | 135.79149 | 15517 ft | 237 kts | 76° |
| 2026-04-28 22:08 | 33.46723 | 135.80929 | 15940 ft | 232 kts | 46° |
| 2026-04-28 22:08 | 33.47836 | 135.82232 | 16367 ft | 219 kts | 23° |
| 2026-04-28 22:09 | 33.49057 | 135.83338 | 16793 ft | 221 kts | 24° |
| 2026-04-28 22:09 | 33.50286 | 135.84473 | 17173 ft | 225 kts | 24° |
| 2026-04-28 22:09 | 33.51541 | 135.85625 | 17558 ft | 228 kts | 24° |
| 2026-04-28 22:09 | 33.52813 | 135.86790 | 17948 ft | 231 kts | 24° |
| 2026-04-28 22:10 | 33.54100 | 135.87971 | 18341 ft | 234 kts | 24° |
| 2026-04-28 22:10 | 33.55402 | 135.89167 | 18680 ft | 237 kts | 25° |
| 2026-04-28 22:10 | 33.56699 | 135.90357 | 19016 ft | 238 kts | 25° |
| 2026-04-28 22:10 | 33.58020 | 135.91570 | 19360 ft | 240 kts | 25° |
| 2026-04-28 22:11 | 33.59347 | 135.92791 | 19709 ft | 241 kts | 25° |
| 2026-04-28 22:11 | 33.60681 | 135.94018 | 20060 ft | 242 kts | 25° |
| 2026-04-28 22:11 | 33.62022 | 135.95252 | 20412 ft | 243 kts | 25° |
| 2026-04-28 22:11 | 33.63363 | 135.96486 | 20770 ft | 243 kts | 25° |
| 2026-04-28 22:12 | 33.64705 | 135.97721 | 21144 ft | 243 kts | 25° |
| 2026-04-28 22:12 | 33.66048 | 135.98958 | 21511 ft | 242 kts | 25° |
| 2026-04-28 22:12 | 33.67386 | 136.00190 | 21883 ft | 241 kts | 25° |
| 2026-04-28 22:12 | 33.68713 | 136.01414 | 22257 ft | 240 kts | 25° |
| 2026-04-28 22:13 | 33.70031 | 136.02629 | 22668 ft | 238 kts | 24° |
| 2026-04-28 22:13 | 33.71326 | 136.03822 | 23042 ft | 235 kts | 23° |
| 2026-04-28 22:13 | 33.72622 | 136.05016 | 23386 ft | 235 kts | 23° |
| 2026-04-28 22:13 | 33.73924 | 136.06217 | 23676 ft | 236 kts | 23° |
| 2026-04-28 22:14 | 33.75226 | 136.07423 | 23932 ft | 236 kts | 23° |
| 2026-04-28 22:14 | 33.76550 | 136.08641 | 24135 ft | 241 kts | 24° |
| 2026-04-28 22:14 | 33.77886 | 136.09880 | 24363 ft | 244 kts | 24° |
| 2026-04-28 22:14 | 33.79238 | 136.11131 | 24591 ft | 247 kts | 24° |
| 2026-04-28 22:15 | 33.80606 | 136.12396 | 24820 ft | 249 kts | 24° |
| 2026-04-28 22:15 | 33.81986 | 136.13672 | 25053 ft | 251 kts | 24° |
| 2026-04-28 22:15 | 33.83380 | 136.14963 | 25290 ft | 254 kts | 24° |
| 2026-04-28 22:15 | 33.84785 | 136.16264 | 25521 ft | 256 kts | 24° |
| 2026-04-28 22:16 | 33.86210 | 136.17582 | 25715 ft | 260 kts | 24° |
| 2026-04-28 22:16 | 33.87657 | 136.18923 | 25908 ft | 264 kts | 24° |
| 2026-04-28 22:16 | 33.89106 | 136.20269 | 26100 ft | 268 kts | 24° |
| 2026-04-28 22:16 | 33.90598 | 136.21653 | 26297 ft | 272 kts | 25° |
| 2026-04-28 22:17 | 33.92108 | 136.23054 | 26495 ft | 275 kts | 25° |
| 2026-04-28 22:17 | 33.93633 | 136.24471 | 26692 ft | 278 kts | 25° |
| 2026-04-28 22:17 | 33.95173 | 136.25901 | 26891 ft | 281 kts | 25° |
| 2026-04-28 22:17 | 33.96736 | 136.27351 | 26999 ft | 288 kts | 25° |
| 2026-04-28 22:18 | 33.98341 | 136.28851 | 27004 ft | 295 kts | 26° |
| 2026-04-28 22:18 | 33.99978 | 136.30382 | 27011 ft | 300 kts | 26° |
| 2026-04-28 22:18 | 34.01643 | 136.31924 | 27014 ft | 304 kts | 26° |
| 2026-04-28 22:18 | 34.03313 | 136.33473 | 27012 ft | 309 kts | 26° |
| 2026-04-28 22:19 | 34.05021 | 136.35067 | 27012 ft | 312 kts | 26° |
| 2026-04-28 22:19 | 34.06747 | 136.36680 | 27011 ft | 314 kts | 26° |
| 2026-04-28 22:19 | 34.08489 | 136.38303 | 27009 ft | 317 kts | 26° |
| 2026-04-28 22:19 | 34.10244 | 136.39940 | 27009 ft | 319 kts | 26° |
| 2026-04-28 22:20 | 34.11986 | 136.41568 | 27011 ft | 320 kts | 26° |
| 2026-04-28 22:20 | 34.13750 | 136.43218 | 27011 ft | 321 kts | 26° |
| 2026-04-28 22:20 | 34.15524 | 136.44876 | 27012 ft | 322 kts | 26° |
| 2026-04-28 22:20 | 34.17297 | 136.46535 | 27011 ft | 323 kts | 26° |
| 2026-04-28 22:21 | 34.19073 | 136.48198 | 27010 ft | 323 kts | 26° |
| 2026-04-28 22:21 | 34.20850 | 136.49861 | 27014 ft | 324 kts | 26° |
| 2026-04-28 22:21 | 34.22632 | 136.51531 | 27010 ft | 324 kts | 26° |
| 2026-04-28 22:21 | 34.24412 | 136.53200 | 27009 ft | 324 kts | 26° |
| 2026-04-28 22:22 | 34.26195 | 136.54873 | 27007 ft | 325 kts | 27° |
| 2026-04-28 22:22 | 34.27980 | 136.56549 | 27004 ft | 325 kts | 27° |
| 2026-04-28 22:22 | 34.29779 | 136.58195 | 27002 ft | 321 kts | 21° |
| 2026-04-28 22:22 | 34.31719 | 136.59354 | 27005 ft | 303 kts | 5° |
| 2026-04-28 22:23 | 34.33715 | 136.60117 | 27003 ft | 300 kts | 2° |
| 2026-04-28 22:23 | 34.35714 | 136.60882 | 27005 ft | 302 kts | 3° |
| 2026-04-28 22:23 | 34.37716 | 136.61662 | 27006 ft | 303 kts | 3° |
| 2026-04-28 22:23 | 34.39723 | 136.62440 | 27005 ft | 303 kts | 3° |
| 2026-04-28 22:24 | 34.41731 | 136.63211 | 27003 ft | 302 kts | 2° |
| 2026-04-28 22:24 | 34.43715 | 136.63974 | 27002 ft | 303 kts | 3° |
| 2026-04-28 22:24 | 34.45724 | 136.64752 | 27000 ft | 302 kts | 3° |
| 2026-04-28 22:24 | 34.47722 | 136.65525 | 26994 ft | 302 kts | 3° |
| 2026-04-28 22:25 | 34.49723 | 136.66299 | 26992 ft | 301 kts | 3° |
| 2026-04-28 22:25 | 34.51718 | 136.67069 | 26991 ft | 301 kts | 3° |
| 2026-04-28 22:25 | 34.53714 | 136.67841 | 26991 ft | 301 kts | 3° |
| 2026-04-28 22:25 | 34.55711 | 136.68614 | 26991 ft | 301 kts | 3° |
| 2026-04-28 22:26 | 34.57709 | 136.69388 | 26993 ft | 302 kts | 2° |
| 2026-04-28 22:26 | 34.59712 | 136.70164 | 26993 ft | 302 kts | 2° |
| 2026-04-28 22:26 | 34.61710 | 136.70939 | 26994 ft | 301 kts | 2° |
| 2026-04-28 22:26 | 34.63708 | 136.71714 | 26994 ft | 301 kts | 2° |
| 2026-04-28 22:27 | 34.65704 | 136.72489 | 26991 ft | 301 kts | 2° |
| 2026-04-28 22:27 | 34.67702 | 136.73264 | 26990 ft | 301 kts | 2° |
| 2026-04-28 22:27 | 34.69702 | 136.74042 | 26991 ft | 301 kts | 2° |
| 2026-04-28 22:27 | 34.71699 | 136.74817 | 26992 ft | 301 kts | 2° |
| 2026-04-28 22:28 | 34.73671 | 136.75584 | 26993 ft | 301 kts | 2° |
| 2026-04-28 22:28 | 34.75668 | 136.76361 | 26994 ft | 301 kts | 2° |
| 2026-04-28 22:28 | 34.77670 | 136.77141 | 26998 ft | 301 kts | 2° |
| 2026-04-28 22:28 | 34.79674 | 136.77920 | 26997 ft | 303 kts | 2° |
| 2026-04-28 22:29 | 34.81685 | 136.78703 | 26999 ft | 303 kts | 2° |
| 2026-04-28 22:29 | 34.83687 | 136.79485 | 26999 ft | 303 kts | 2° |
| 2026-04-28 22:29 | 34.85686 | 136.80346 | 26991 ft | 313 kts | 11° |
| 2026-04-28 22:29 | 34.87581 | 136.81803 | 26984 ft | 327 kts | 23° |
| 2026-04-28 22:30 | 34.89433 | 136.83404 | 26983 ft | 326 kts | 22° |
| 2026-04-28 22:30 | 34.91297 | 136.84985 | 26984 ft | 326 kts | 22° |
| 2026-04-28 22:30 | 34.93160 | 136.86560 | 26985 ft | 326 kts | 22° |
| 2026-04-28 22:30 | 34.95019 | 136.88145 | 26966 ft | 326 kts | 22° |
| 2026-04-28 22:31 | 34.96881 | 136.89734 | 26968 ft | 326 kts | 22° |
| 2026-04-28 22:31 | 34.98719 | 136.91302 | 26968 ft | 326 kts | 22° |
| 2026-04-28 22:31 | 35.00582 | 136.92889 | 26967 ft | 326 kts | 22° |
| 2026-04-28 22:31 | 35.02443 | 136.94477 | 26967 ft | 326 kts | 22° |
| 2026-04-28 22:32 | 35.04303 | 136.96066 | 26965 ft | 326 kts | 22° |
| 2026-04-28 22:32 | 35.06161 | 136.97652 | 26969 ft | 326 kts | 22° |
| 2026-04-28 22:32 | 35.08028 | 136.99246 | 26968 ft | 328 kts | 22° |
| 2026-04-28 22:32 | 35.09903 | 137.00850 | 26976 ft | 329 kts | 22° |
| 2026-04-28 22:33 | 35.11143 | 137.01912 | 26978 ft | 329 kts | 22° |
| 2026-04-28 22:33 | 35.13020 | 137.03521 | 26973 ft | 329 kts | 22° |
| 2026-04-28 22:33 | 35.14903 | 137.05133 | 26981 ft | 330 kts | 22° |
| 2026-04-28 22:33 | 35.17417 | 137.07287 | 26982 ft | 330 kts | 22° |
| 2026-04-28 22:34 | 35.18662 | 137.08357 | 26981 ft | 330 kts | 22° |
| 2026-04-28 22:34 | 35.20549 | 137.09975 | 26983 ft | 330 kts | 22° |
| 2026-04-28 22:34 | 35.22427 | 137.11588 | 26983 ft | 330 kts | 22° |
| 2026-04-28 22:34 | 35.24309 | 137.13204 | 26976 ft | 331 kts | 22° |
| 2026-04-28 22:35 | 35.26193 | 137.14823 | 26981 ft | 331 kts | 22° |
| 2026-04-28 22:35 | 35.28081 | 137.16447 | 26982 ft | 331 kts | 23° |
| 2026-04-28 22:35 | 35.29964 | 137.18069 | 26979 ft | 331 kts | 23° |
| 2026-04-28 22:35 | 35.31846 | 137.19689 | 26986 ft | 330 kts | 22° |
| 2026-04-28 22:36 | 35.33727 | 137.21308 | 26982 ft | 331 kts | 23° |
| 2026-04-28 22:36 | 35.35586 | 137.22912 | 26983 ft | 330 kts | 23° |
| 2026-04-28 22:36 | 35.37471 | 137.24537 | 26987 ft | 332 kts | 23° |
| 2026-04-28 22:36 | 35.39361 | 137.26169 | 26987 ft | 332 kts | 23° |
| 2026-04-28 22:37 | 35.41257 | 137.27793 | 26984 ft | 331 kts | 22° |
| 2026-04-28 22:37 | 35.43168 | 137.29413 | 26715 ft | 341 kts | 22° |
| 2026-04-28 22:37 | 35.45120 | 137.31096 | 26165 ft | 342 kts | 25° |
| 2026-04-28 22:37 | 35.47028 | 137.32781 | 25622 ft | 334 kts | 24° |
| 2026-04-28 22:38 | 35.48924 | 137.34388 | 25072 ft | 328 kts | 22° |
| 2026-04-28 22:38 | 35.50799 | 137.35961 | 24554 ft | 325 kts | 23° |
| 2026-04-28 22:38 | 35.52642 | 137.37540 | 24035 ft | 322 kts | 24° |
| 2026-04-28 22:38 | 35.54468 | 137.39120 | 23536 ft | 319 kts | 24° |
| 2026-04-28 22:39 | 35.56255 | 137.40656 | 22938 ft | 316 kts | 24° |
| 2026-04-28 22:39 | 35.58049 | 137.42195 | 22323 ft | 313 kts | 23° |
| 2026-04-28 22:39 | 35.59838 | 137.43730 | 21592 ft | 314 kts | 24° |
| 2026-04-28 22:39 | 35.61621 | 137.45269 | 20881 ft | 312 kts | 24° |
| 2026-04-28 22:40 | 35.63386 | 137.46792 | 20171 ft | 309 kts | 24° |
| 2026-04-28 22:40 | 35.65143 | 137.48302 | 19472 ft | 307 kts | 24° |
| 2026-04-28 22:40 | 35.66865 | 137.49797 | 18822 ft | 295 kts | 24° |
| 2026-04-28 22:40 | 35.68496 | 137.51226 | 18118 ft | 281 kts | 22° |
| 2026-04-28 22:41 | 35.70068 | 137.52566 | 17329 ft | 270 kts | 21° |
| 2026-04-28 22:41 | 35.71592 | 137.53861 | 16564 ft | 262 kts | 22° |
| 2026-04-28 22:41 | 35.73068 | 137.55131 | 15823 ft | 256 kts | 22° |
| 2026-04-28 22:41 | 35.74509 | 137.56377 | 15095 ft | 249 kts | 22° |
| 2026-04-28 22:42 | 35.75899 | 137.57575 | 14650 ft | 231 kts | 22° |
| 2026-04-28 22:42 | 35.77200 | 137.58671 | 14645 ft | 225 kts | 19° |
| 2026-04-28 22:42 | 35.78527 | 137.59757 | 14495 ft | 242 kts | 21° |
| 2026-04-28 22:42 | 35.79951 | 137.61000 | 14188 ft | 258 kts | 25° |
| 2026-04-28 22:43 | 35.81427 | 137.62321 | 13888 ft | 265 kts | 25° |
| 2026-04-28 22:43 | 35.82946 | 137.63640 | 13538 ft | 268 kts | 25° |
| 2026-04-28 22:43 | 35.84486 | 137.64957 | 13181 ft | 270 kts | 25° |
| 2026-04-28 22:43 | 35.85995 | 137.66280 | 12820 ft | 262 kts | 25° |
| 2026-04-28 22:44 | 35.87460 | 137.67582 | 12451 ft | 259 kts | 31° |
| 2026-04-28 22:44 | 35.88653 | 137.69279 | 12092 ft | 266 kts | 53° |
| 2026-04-28 22:44 | 35.89369 | 137.71331 | 12001 ft | 254 kts | 73° |
| 2026-04-28 22:44 | 35.89589 | 137.73432 | 11991 ft | 239 kts | 90° |
| 2026-04-28 22:45 | 35.89652 | 137.75453 | 11987 ft | 235 kts | 89° |
| 2026-04-28 22:45 | 35.89723 | 137.77474 | 11688 ft | 244 kts | 89° |
| 2026-04-28 22:45 | 35.89777 | 137.79580 | 11302 ft | 247 kts | 89° |
| 2026-04-28 22:45 | 35.89840 | 137.81698 | 10918 ft | 246 kts | 89° |
| 2026-04-28 22:46 | 35.89911 | 137.83802 | 10546 ft | 246 kts | 88° |
| 2026-04-28 22:46 | 35.89978 | 137.85917 | 10158 ft | 245 kts | 89° |
| 2026-04-28 22:46 | 35.90040 | 137.88006 | 9769 ft | 242 kts | 88° |
| 2026-04-28 22:46 | 35.90105 | 137.90039 | 9338 ft | 232 kts | 89° |
| 2026-04-28 22:47 | 35.90170 | 137.92002 | 8925 ft | 227 kts | 86° |
| 2026-04-28 22:47 | 35.90546 | 137.93849 | 8600 ft | 216 kts | 61° |
| 2026-04-28 22:47 | 35.91311 | 137.95329 | 8584 ft | 195 kts | 41° |
| 2026-04-28 22:47 | 35.92296 | 137.96381 | 8583 ft | 186 kts | 24° |
| 2026-04-28 22:48 | 35.93405 | 137.97302 | 8580 ft | 199 kts | 26° |
| 2026-04-28 22:48 | 35.94564 | 137.98330 | 8596 ft | 210 kts | 28° |
| 2026-04-28 22:48 | 35.95764 | 137.99398 | 8599 ft | 215 kts | 28° |
| 2026-04-28 22:48 | 35.96998 | 138.00477 | 8598 ft | 219 kts | 27° |
| 2026-04-28 22:49 | 35.98306 | 138.01389 | 8602 ft | 211 kts | 9° |
| 2026-04-28 22:49 | 35.99714 | 138.01678 | 8606 ft | 201 kts | 351° |
| 2026-04-28 22:49 | 36.01099 | 138.01652 | 8610 ft | 202 kts | 350° |
| 2026-04-28 22:49 | 36.02516 | 138.01655 | 8607 ft | 205 kts | 351° |
| 2026-04-28 22:50 | 36.03939 | 138.01658 | 8603 ft | 204 kts | 351° |
| 2026-04-28 22:50 | 36.05350 | 138.01659 | 8605 ft | 202 kts | 350° |
| 2026-04-28 22:50 | 36.06757 | 138.01648 | 8608 ft | 203 kts | 351° |
| 2026-04-28 22:50 | 36.08177 | 138.01640 | 8603 ft | 205 kts | 352° |
| 2026-04-28 22:51 | 36.09609 | 138.01638 | 8604 ft | 206 kts | 352° |
| 2026-04-28 22:51 | 36.11052 | 138.01635 | 8555 ft | 209 kts | 352° |
| 2026-04-28 22:51 | 36.12476 | 138.01650 | 8298 ft | 200 kts | 354° |
| 2026-04-28 22:51 | 36.13850 | 138.01647 | 8040 ft | 199 kts | 353° |
| 2026-04-28 22:52 | 36.15259 | 138.01620 | 7791 ft | 205 kts | 354° |
| 2026-04-28 22:52 | 36.16698 | 138.01618 | 7519 ft | 208 kts | 355° |
| 2026-04-28 22:52 | 36.18151 | 138.01621 | 7253 ft | 210 kts | 355° |
| 2026-04-28 22:52 | 36.19614 | 138.01617 | 6987 ft | 211 kts | 356° |
| 2026-04-28 22:53 | 36.21083 | 138.01611 | 6717 ft | 211 kts | 356° |
| 2026-04-28 22:53 | 36.22552 | 138.01609 | 6450 ft | 211 kts | 358° |
| 2026-04-28 22:53 | 36.24014 | 138.01605 | 6176 ft | 210 kts | 358° |
| 2026-04-28 22:53 | 36.25474 | 138.01601 | 5895 ft | 208 kts | 358° |
| 2026-04-28 22:54 | 36.26837 | 138.01535 | 5802 ft | 183 kts | 347° |
| 2026-04-28 22:54 | 36.27991 | 138.01108 | 5764 ft | 168 kts | 334° |
| 2026-04-28 22:54 | 36.28997 | 138.00406 | 5626 ft | 165 kts | 321° |
| 2026-04-28 22:54 | 36.29852 | 137.99461 | 5500 ft | 165 kts | 309° |
| 2026-04-28 22:55 | 36.30515 | 137.98313 | 5367 ft | 163 kts | 297° |
| 2026-04-28 22:55 | 36.30958 | 137.97041 | 5242 ft | 161 kts | 285° |
| 2026-04-28 22:55 | 36.31173 | 137.95687 | 5127 ft | 160 kts | 273° |
| 2026-04-28 22:55 | 36.31151 | 137.94311 | 5004 ft | 162 kts | 262° |
| 2026-04-28 22:56 | 36.30886 | 137.92933 | 4884 ft | 166 kts | 249° |
| 2026-04-28 22:56 | 36.30379 | 137.91644 | 4766 ft | 167 kts | 237° |
| 2026-04-28 22:56 | 36.29655 | 137.90527 | 4713 ft | 164 kts | 224° |
| 2026-04-28 22:56 | 36.28772 | 137.89653 | 4698 ft | 162 kts | 212° |
| 2026-04-28 22:57 | 36.27739 | 137.89016 | 4461 ft | 168 kts | 200° |
| 2026-04-28 22:57 | 36.26595 | 137.88673 | 4195 ft | 170 kts | 187° |
| 2026-04-28 22:57 | 36.25408 | 137.88659 | 3913 ft | 172 kts | 173° |
| 2026-04-28 22:57 | 36.24246 | 137.88980 | 3634 ft | 169 kts | 160° |
| 2026-04-28 22:58 | 36.23252 | 137.89550 | 3382 ft | 153 kts | 148° |
| 2026-04-28 22:58 | 36.22418 | 137.90261 | 3268 ft | 139 kts | 144° |
| 2026-04-28 22:58 | 36.21594 | 137.90941 | 3006 ft | 140 kts | 146° |
| 2026-04-28 22:58 | 36.20784 | 137.91437 | 2852 ft | 121 kts | 161° |
| 2026-04-28 22:59 | 36.20037 | 137.91627 | 2620 ft | 100 kts | 171° |
| 2026-04-28 22:59 | 36.19360 | 137.91768 | 2491 ft | 99 kts | 167° |
| 2026-04-28 22:59 | 36.18683 | 137.91898 | 2412 ft | 97 kts | 169° |
| 2026-04-28 22:59 | 36.17995 | 137.92027 | 2269 ft | 104 kts | 173° |
| 2026-04-28 23:00 | 36.17285 | 137.92150 | 2160 ft | 98 kts | 169° |
| 2026-04-28 23:00 | 36.16801 | 137.92241 | 2170 ft | 30 kts | 171° |
| 2026-04-28 23:00 | 36.16728 | 137.92256 | 2173 ft | 7 kts | 170° |
| 2026-04-28 23:00 | 36.16644 | 137.92268 | 2173 ft | 19 kts | 173° |
| 2026-04-28 23:01 | 36.16553 | 137.92289 | 2177 ft | 6 kts | 171° |
| 2026-04-28 23:01 | 36.16503 | 137.92300 | 2179 ft | 11 kts | 171° |
| 2026-04-28 23:01 | 36.16423 | 137.92326 | 2180 ft | 13 kts | 128° |
| 2026-04-28 23:01 | 36.16422 | 137.92419 | 2180 ft | 0 kts | 83° |
| 2026-04-28 23:02 | 36.16424 | 137.92432 | 2180 ft | 6 kts | 82° |
| 2026-04-28 23:02 | 36.16434 | 137.92518 | 2178 ft | 7 kts | 82° |
| 2026-04-28 23:02 | 36.16440 | 137.92562 | 2172 ft | 4 kts | 84° |
| 2026-04-28 23:03 | 36.16441 | 137.92571 | 2175 ft | 0 kts | 82° |
| 2026-04-28 23:03 | 36.16442 | 137.92578 | 2176 ft | 0 kts | 83° |